Flight Track Log - Related Links

Times and Time Zones

All times are in EDT time to prevent confusion due to time zone crossing. See the DAL4165 flight status page for this flight to view local times or setup timezone preferences in your user account.

Time Position Orientation Groundspeed Altitude Reporting Facility
EDT Latitude Longitude Course Direction KTS MPH feet Rate Location/Type
Sun 07:10:03 AM 42.9167 -71.4167 250° West 153 176 1,100  Level KA90
Sun 07:11:28 AM 42.8947 -71.4992 250° West 178 205 3,900 1,808 Climbing Boston Center
Sun 07:12:29 AM 42.9014 -71.5756 277° West 218 251 5,500 2,218 Climbing Boston Center
Sun 07:13:27 AM 42.9125 -71.6803 278° West 257 296 8,300 2,521 Climbing Boston Center
Sun 07:14:28 AM 42.9194 -71.7653 276° West 257 296 10,500 1,686 Climbing Boston Center
Sun 07:15:28 AM 42.9264 -71.8872 274° West 279 321 11,700 1,230 Climbing Boston Center
Sun 07:16:30 AM 42.9350 -71.9947 276° West 316 364 13,000 1,488 Climbing Boston Center
Sun 07:17:29 AM 42.9439 -72.1308 275° West 329 379 14,700 1,487 Climbing Boston Center
Sun 07:18:27 AM 42.9525 -72.2444 276° West 334 384 15,900 1,160 Climbing Boston Center
Sun 07:19:28 AM 42.9631 -72.3778 276° West 340 391 17,000 1,180 Climbing Boston Center
Sun 07:20:29 AM 42.9736 -72.5083 276° West 346 398 18,300 1,100 Climbing Boston Center
Sun 07:21:28 AM 42.9817 -72.6558 274° West 351 404 19,200 857 Climbing Boston Center
Sun 07:22:28 AM 42.9917 -72.7919 276° West 351 404 20,000 807 Climbing Boston Center
Sun 07:23:27 AM 42.9994 -72.9311 274° West 358 412 20,800 750 Climbing Boston Center
Sun 07:24:28 AM 43.0094 -73.0592 276° West 376 433 21,500 780 Climbing Boston Center
Sun 07:25:30 AM 43.0169 -73.1983 274° West 376 433 22,400 893 Climbing Boston Center
Sun 07:26:29 AM 43.0264 -73.3347 275° West 371 427 23,300 872 Climbing Boston Center
Sun 07:27:27 AM 43.0314 -73.4739 273° West 366 421 24,100 756 Climbing Boston Center
Sun 07:28:28 AM 43.0383 -73.6133 274° West 366 421 24,800 634 Climbing Boston Center
Sun 07:29:30 AM 43.0472 -73.7528 275° West 366 421 25,400 595 Climbing Boston Center
Sun 07:30:29 AM 43.0558 -73.8950 275° West 366 421 26,000 661 Climbing Boston Center
Sun 07:31:28 AM 43.0644 -74.0428 275° West 371 427 26,700 639 Climbing Boston Center
Sun 07:32:31 AM 43.0706 -74.1853 273° West 377 434 27,300 590 Climbing Boston Center
Sun 07:33:30 AM 43.0786 -74.3306 274° West 383 441 27,900 615 Climbing Boston Center
Sun 07:34:28 AM 43.0867 -74.4728 274° West 383 441 28,500 600 Climbing Boston Center
Sun 07:35:30 AM 43.0922 -74.6181 273° West 383 441 29,100 600 Climbing Boston Center
Sun 07:36:28 AM 43.1000 -74.7606 274° West 383 441 29,700 462 Climbing Boston Center
Sun 07:37:27 AM 43.1075 -74.9031 274° West 383 441 30,000 148 Climbing Boston Center
Sun 07:38:30 AM 43.1147 -75.0483 274° West 383 441 30,000  Level Boston Center
Sun 07:39:30 AM 43.1194 -75.1964 273° West 388 447 30,000  Level Boston Center
Sun 07:40:28 AM 43.1283 -75.3478 275° West 394 453 30,000 -51 Level Boston Center
Sun 07:41:28 AM 43.1347 -75.4961 273° West 394 453 29,900  Descending Boston Center
Sun 07:42:28 AM 43.1392 -75.6414 272° West 394 453 30,000 33 Climbing Boston Center
Sun 07:44:28 AM 43.1500 -75.9303 273° West 378 435 30,000  Level Cleveland Center
Sun 07:45:29 AM 43.1556 -76.0725 273° West 374 430 30,000  Level Cleveland Center
Sun 07:46:30 AM 43.1586 -76.2136 272° West 372 428 30,000  Level Cleveland Center
Sun 07:47:31 AM 43.1453 -76.3536 263° West 373 429 30,000  Level Cleveland Center
Sun 07:48:32 AM 43.1350 -76.4939 264° West 371 427 30,000  Level Cleveland Center
Sun 07:49:33 AM 43.1222 -76.6344 263° West 372 428 30,000  Level Cleveland Center
Sun 07:50:34 AM 43.1078 -76.8039 263° West 376 433 30,000  Level Cleveland Center
Sun 07:51:35 AM 43.0953 -76.9431 263° West 373 429 30,000  Level Cleveland Center
Sun 07:52:36 AM 43.0819 -77.0806 262° West 369 425 30,000  Level Cleveland Center
Sun 07:53:37 AM 43.0703 -77.2211 264° West 373 429 30,000  Level Cleveland Center
Sun 07:54:38 AM 43.0564 -77.3597 262° West 371 427 30,000  Level Cleveland Center
Sun 07:55:39 AM 43.0428 -77.4997 262° West 375 432 30,000  Level Cleveland Center
Sun 07:56:40 AM 43.0303 -77.6394 263° West 375 432 30,000  Level Cleveland Center
Sun 07:57:41 AM 43.0158 -77.7794 262° West 377 434 30,000  Level Cleveland Center
Sun 07:58:42 AM 43.0019 -77.9217 262° West 381 438 30,000  Level Cleveland Center
Sun 07:59:43 AM 42.9861 -78.0925 263° West 383 441 30,000  Level Cleveland Center
Sun 08:00:44 AM 42.9711 -78.2367 262° West 389 448 30,000  Level Cleveland Center
Sun 08:01:45 AM 42.9561 -78.3819 262° West 390 449 30,000  Level Cleveland Center
Sun 08:02:46 AM 42.9417 -78.5261 262° West 386 444 30,000  Level Cleveland Center
Sun 08:03:47 AM 42.9256 -78.6725 262° West 392 451 30,000  Level Cleveland Center
Sun 08:04:48 AM 42.9047 -78.8169 259° West 391 450 30,000  Level Cleveland Center
Sun 08:05:49 AM 42.8833 -78.9608 259° West 391 450 30,000  Level Cleveland Center
Sun 08:06:50 AM 42.8625 -79.1067 259° West 390 449 30,000  Level Cleveland Center
Sun 08:07:51 AM 42.8406 -79.2522 258° West 393 452 30,000  Level Cleveland Center
Sun 08:08:52 AM 42.8189 -79.3964 258° West 390 449 30,000  Level Cleveland Center
Sun 08:09:54 AM 42.7933 -79.5700 259° West 390 449 30,000  Level Cleveland Center
Sun 08:10:55 AM 42.7703 -79.7167 258° West 395 455 30,000  Level Cleveland Center
Sun 08:11:56 AM 42.7489 -79.8614 259° West 393 452 30,000  Level Cleveland Center
Sun 08:12:57 AM 42.7444 -80.0056 268° West 394 453 30,000 -246 Level Cleveland Center
Sun 08:13:58 AM 42.7375 -80.1578 266° West 400 460 29,500 -738 Descending Cleveland Center
Sun 08:14:59 AM 42.7300 -80.3142 266° West 415 478 28,500 -732 Descending Cleveland Center
Sun 08:16:01 AM 42.7222 -80.4772 266° West 428 493 28,000 -244 Descending Cleveland Center
Sun 08:17:02 AM 42.7153 -80.6375 267° West 424 488 28,000 -148 Level Cleveland Center
Sun 08:18:03 AM 42.7094 -80.7994 267° West 426 490 27,700 -885 Descending Cleveland Center
Sun 08:19:04 AM 42.6986 -80.9558 265° West 417 480 26,200 -1,475 Descending Cleveland Center
Sun 08:20:05 AM 42.6800 -81.1053 260° West 405 466 24,700 -1,574 Descending Cleveland Center
Sun 08:21:06 AM 42.6608 -81.2767 261° West 393 452 23,000 -1,475 Descending Cleveland Center
Sun 08:22:07 AM 42.6444 -81.4200 261° West 386 444 21,700 -1,230 Descending Cleveland Center
Sun 08:23:08 AM 42.6281 -81.5561 261° West 369 425 20,500 -1,171 Descending Cleveland Center
Sun 08:24:10 AM 42.6122 -81.6894 261° West 360 414 19,300 -1,220 Descending Cleveland Center
Sun 08:25:11 AM 42.5956 -81.8286 261° West 359 413 18,000 -1,230 Descending Cleveland Center
Sun 08:26:12 AM 42.5797 -81.9608 261° West 358 412 16,800 -1,131 Descending Cleveland Center
Sun 08:27:13 AM 42.5642 -82.0925 261° West 356 410 15,700 -1,033 Descending Cleveland Center
Sun 08:28:14 AM 42.5478 -82.2233 260° West 354 407 14,700 -1,056 Descending Cleveland Center
Sun 08:29:01 AM 42.5350 -82.3350 261° West 350 403 13,800 -1,099 Descending Cleveland Center
Sun 08:29:25 AM 42.5275 -82.3850 259° West 347 399 13,400 -1,059 Descending Cleveland Center
Sun 08:30:26 AM 42.5125 -82.5103 261° West 333 383 12,300 -743 Descending Cleveland Center
Sun 08:31:18 AM 42.4889 -82.5986 250° West 337 388 12,000 -197 Descending Cleveland Center
Sun 08:31:27 AM 42.4792 -82.6278 246° West 342 394 12,100  Climbing Cleveland Center
Sun 08:32:19 AM 42.4472 -82.7139 243° Southwest 341 392 12,000  Descending Cleveland Center
Sun 08:32:28 AM 42.4347 -82.7492 244° Southwest 340 391 12,100  Climbing Cleveland Center
Sun 08:33:20 AM 42.4069 -82.8267 244° Southwest 336 387 12,000  Descending Cleveland Center
Sun 08:33:29 AM 42.3950 -82.8653 247° West 338 389 12,100  Climbing Cleveland Center
Sun 08:34:21 AM 42.3650 -82.9406 242° Southwest 337 388 12,000 -98 Descending Cleveland Center
Sun 08:34:30 AM 42.3531 -82.9783 247° West 335 386 12,000  Level Cleveland Center
Sun 08:35:22 AM 42.3194 -83.0683 243° Southwest 319 367 12,000 98 Level Cleveland Center
Sun 08:35:31 AM 42.3161 -83.0806 250° West 289 333 12,100  Climbing Cleveland Center
Sun 08:36:32 AM 42.2803 -83.1658 240° Southwest 259 298 12,000 -526 Descending Cleveland Center
Sun 08:37:25 AM 42.2194 -83.2044 205° Southwest 272 313 11,100 -1,100 Descending Cleveland Center
Sun 08:37:32 AM 42.2139 -83.2131 229° Southwest 273 314 10,900 -1,703 Descending Cleveland Center
Sun 08:38:39 AM 42.1367 -83.2617 205° Southwest 255 293 9,000 -1,603 Descending Cleveland Center
Sun 08:39:28 AM 42.0886 -83.2917 205° Southwest 252 290 7,800 -1,475 Descending Cleveland Center
Sun 08:39:40 AM 42.0747 -83.3036 213° Southwest 240 276 7,500 -885 Descending Cleveland Center
Sun 08:40:29 AM 42.0322 -83.3300 205° Southwest 229 264 6,900 -885 Descending Cleveland Center
Sun 08:40:41 AM 42.0217 -83.3411 218° Southwest 219 252 6,600 -1,377 Descending Cleveland Center
Sun 08:41:30 AM 41.9778 -83.3692 205° Southwest 222 255 5,500 -1,433 Descending Cleveland Center
Sun 08:41:48 AM 41.9733 -83.3961 257° West 210 242 5,000 -1,377 Descending Cleveland Center
Sun 08:42:31 AM 41.9889 -83.4317 300° West 194 223 4,100 -982 Descending Cleveland Center
Sun 08:42:43 AM 42.0006 -83.4478 314° West 179 206 4,100 -97 Level Cleveland Center
Sun 08:43:33 AM 42.0325 -83.4467 North 183 211 4,000 -98 Descending Cleveland Center
Sun 08:43:44 AM 42.0489 -83.4461 North 148 170 4,000 -492 Level Cleveland Center
Sun 08:44:34 AM 42.0756 -83.4389 11° North 159 183 3,500 -787 Descending Cleveland Center
Sun 08:44:45 AM 42.0900 -83.4294 26° Northeast 162 186 3,200 -1,000 Descending Cleveland Center
Sun 08:45:46 AM 42.1300 -83.4014 27° Northeast 150 173 2,300 -836 Descending Cleveland Center
Sun 08:46:47 AM 42.1636 -83.3753 30° Northeast 139 160 1,500 -750 Descending Cleveland Center
Sun 08:47:38 AM 42.1897 -83.3556 29° Northeast 143 165 900 -706 Descending Cleveland Center

Login

Don't have an account? Register now (free) for customized features, flight alerts, and more!